Time;durP1;ratioP1;P1;durP2;ratioP2;P2;SDS_P1;SDS_P2;PMS_P1;PMS_P2;Temp;Humidity;BMP_temperature;BMP_pressure;BME280_temperature;BME280_humidity;BME280_pressure;Samples;Min_cycle;Max_cycle;Signal;HPM_P1;HPM_P2
2024/02/26 00:01:40;;;;;;;6.32;4.45;;;3.60;99.90;;;;;;5020540;28;20514;-34
2024/02/26 00:04:06;;;;;;;5.80;4.10;;;3.60;99.90;;;;;;5023821;28;20028;-33
2024/02/26 00:06:31;;;;;;;4.78;3.40;;;3.70;99.90;;;;;;5020458;28;20121;-33
2024/02/26 00:08:57;;;;;;;6.93;3.88;;;3.70;99.90;;;;;;5022022;28;20108;-32
2024/02/26 00:11:23;;;;;;;5.00;4.10;;;3.60;99.90;;;;;;5022713;28;20605;-33
2024/02/26 00:13:48;;;;;;;4.80;3.58;;;3.70;99.90;;;;;;5026433;28;20030;-32
2024/02/26 00:16:14;;;;;;;6.88;3.92;;;3.60;99.90;;;;;;5024216;28;20078;-36
2024/02/26 00:18:39;;;;;;;5.10;4.22;;;3.50;99.90;;;;;;5025038;28;20378;-30
2024/02/26 00:21:05;;;;;;;5.63;4.20;;;3.40;99.90;;;;;;5021396;28;20033;-34
2024/02/26 00:23:31;;;;;;;6.85;4.28;;;3.30;99.90;;;;;;5024638;28;20025;-31
2024/02/26 00:25:56;;;;;;;5.32;4.53;;;3.30;99.90;;;;;;5022640;28;20510;-30
2024/02/26 00:28:22;;;;;;;4.72;3.83;;;3.20;99.90;;;;;;5025433;28;20126;-31
2024/02/26 00:30:48;;;;;;;5.78;4.40;;;3.30;99.90;;;;;;5019059;28;20045;-34
2024/02/26 00:33:17;;;;;;;6.15;4.43;;;3.20;99.90;;;;;;5042161;28;20037;-39
2024/02/26 00:35:43;;;;;;;5.28;3.85;;;3.20;99.90;;;;;;5036313;28;20068;-38
2024/02/26 00:38:08;;;;;;;5.10;4.55;;;3.30;99.90;;;;;;5041539;28;20017;-39
2024/02/26 00:40:34;;;;;;;5.55;4.28;;;3.30;99.90;;;;;;5037619;28;20048;-39
2024/02/26 00:43:00;;;;;;;6.00;3.95;;;3.20;99.90;;;;;;5041454;28;20719;-39
2024/02/26 00:45:25;;;;;;;5.20;3.55;;;3.30;99.90;;;;;;5034409;28;20503;-39
2024/02/26 00:47:51;;;;;;;6.60;4.35;;;3.10;99.90;;;;;;5042042;28;20443;-40
2024/02/26 00:50:17;;;;;;;4.88;4.35;;;3.10;99.90;;;;;;5038420;28;20040;-33
2024/02/26 00:52:42;;;;;;;8.50;4.75;;;3.00;99.90;;;;;;5037681;28;20033;-38
2024/02/26 00:55:08;;;;;;;5.03;4.35;;;3.00;99.90;;;;;;5040655;28;20025;-38
2024/02/26 00:57:34;;;;;;;7.82;4.57;;;3.10;99.90;;;;;;5043779;28;20568;-40
2024/02/26 01:00:00;;;;;;;5.70;3.72;;;3.00;99.90;;;;;;5042541;28;20040;-37
2024/02/26 01:02:26;;;;;;;5.18;4.07;;;3.10;99.90;;;;;;5038770;28;20678;-36
2024/02/26 01:04:52;;;;;;;6.05;3.95;;;3.10;99.90;;;;;;5042282;28;20029;-39
2024/02/26 01:07:19;;;;;;;6.70;4.25;;;3.20;99.90;;;;;;5041333;28;20037;-36
2024/02/26 01:09:44;;;;;;;4.28;3.60;;;3.20;99.90;;;;;;5042971;28;20064;-37
2024/02/26 01:12:10;;;;;;;8.38;5.10;;;3.10;99.90;;;;;;5043013;28;20694;-40
2024/02/26 01:14:35;;;;;;;5.05;4.20;;;3.10;99.90;;;;;;5041334;28;20040;-37
2024/02/26 01:17:01;;;;;;;6.30;4.60;;;3.00;99.90;;;;;;5042546;28;20112;-38
2024/02/26 01:19:26;;;;;;;5.05;3.78;;;3.00;99.90;;;;;;5041113;28;20495;-38
2024/02/26 01:21:53;;;;;;;5.93;4.07;;;3.00;99.90;;;;;;5043183;28;20056;-32
2024/02/26 01:24:19;;;;;;;6.75;4.10;;;3.00;99.90;;;;;;5038191;28;20138;-32
2024/02/26 01:26:44;;;;;;;4.43;3.90;;;3.10;99.90;;;;;;5037154;28;20139;-31
2024/02/26 01:29:10;;;;;;;5.57;3.90;;;3.10;99.90;;;;;;5043121;28;20029;-32
2024/02/26 01:31:35;;;;;;;7.57;4.75;;;3.10;99.90;;;;;;5031592;28;20132;-34
2024/02/26 01:34:01;;;;;;;6.30;4.07;;;3.20;99.90;;;;;;5023233;28;20029;-31
2024/02/26 01:36:27;;;;;;;7.13;4.00;;;3.30;99.90;;;;;;5017049;28;20060;-32
2024/02/26 01:38:53;;;;;;;5.53;4.18;;;3.30;99.90;;;;;;5023544;28;20025;-32
2024/02/26 01:41:18;;;;;;;6.05;3.90;;;3.20;99.90;;;;;;5023286;28;20039;-37
2024/02/26 01:43:44;;;;;;;5.70;4.38;;;3.20;99.90;;;;;;5019758;28;20021;-43
2024/02/26 01:46:13;;;;;;;7.35;4.88;;;3.20;99.90;;;;;;5023275;28;20486;-40
2024/02/26 01:48:41;;;;;;;5.53;3.97;;;3.10;99.90;;;;;;5022076;28;20493;-41
2024/02/26 01:51:07;;;;;;;6.32;4.53;;;3.00;99.90;;;;;;5023372;28;20532;-37
2024/02/26 01:53:33;;;;;;;6.32;4.72;;;3.00;99.90;;;;;;5021295;28;20041;-40
2024/02/26 01:55:59;;;;;;;5.88;4.25;;;3.00;99.90;;;;;;5015247;28;20022;-42
2024/02/26 01:58:24;;;;;;;4.80;4.13;;;3.00;99.90;;;;;;5019412;28;20386;-40
2024/02/26 02:00:50;;;;;;;8.80;4.65;;;2.80;99.90;;;;;;5024672;28;20076;-41
2024/02/26 02:03:16;;;;;;;6.05;4.28;;;2.60;99.90;;;;;;5027480;28;20479;-41
2024/02/26 02:05:42;;;;;;;6.65;4.22;;;2.70;99.90;;;;;;5023147;28;20059;-41
2024/02/26 02:08:20;;;;;;;10.05;5.07;;;2.70;99.90;;;;;;5026624;28;20021;-40
2024/02/26 02:10:47;;;;;;;8.15;4.70;;;2.70;99.90;;;;;;5024889;28;20037;-42
2024/02/26 02:13:13;;;;;;;5.97;4.55;;;2.70;99.90;;;;;;5024758;28;20025;-40
2024/02/26 02:15:39;;;;;;;6.43;4.80;;;2.80;99.90;;;;;;5023392;28;20041;-38
2024/02/26 02:18:05;;;;;;;7.57;4.93;;;2.70;99.90;;;;;;5025642;28;20029;-40
2024/02/26 02:20:35;;;;;;;5.95;4.78;;;2.80;99.90;;;;;;5022285;28;20470;-39
2024/02/26 02:23:01;;;;;;;8.63;4.65;;;2.90;99.90;;;;;;5026652;28;20551;-38
2024/02/26 02:25:27;;;;;;;5.05;4.20;;;3.00;99.90;;;;;;5025682;28;20479;-41
2024/02/26 02:27:56;;;;;;;11.65;4.70;;;3.00;99.90;;;;;;5023397;28;20051;-40
2024/02/26 02:30:26;;;;;;;5.35;4.57;;;3.00;99.90;;;;;;5024190;28;20046;-41
2024/02/26 02:32:52;;;;;;;6.50;4.43;;;3.00;99.90;;;;;;5060137;28;20045;-41
2024/02/26 02:35:17;;;;;;;7.05;4.88;;;3.00;99.90;;;;;;5030970;28;20133;-38
2024/02/26 02:37:43;;;;;;;7.05;5.07;;;2.90;99.90;;;;;;5031069;28;20131;-40
2024/02/26 02:40:09;;;;;;;7.00;4.53;;;2.90;99.90;;;;;;5030552;28;20038;-40
2024/02/26 02:42:35;;;;;;;5.43;4.60;;;2.90;99.90;;;;;;5028006;28;20033;-31
2024/02/26 02:45:00;;;;;;;5.75;4.20;;;2.90;99.90;;;;;;5033940;28;20037;-32
2024/02/26 02:47:26;;;;;;;7.05;4.88;;;2.90;99.90;;;;;;5033926;28;20032;-31
2024/02/26 02:49:51;;;;;;;6.38;4.80;;;3.00;99.90;;;;;;5024143;28;20629;-32
2024/02/26 02:52:17;;;;;;;6.95;4.93;;;2.90;99.90;;;;;;5038250;28;20052;-32
2024/02/26 02:54:43;;;;;;;5.90;4.70;;;2.90;99.90;;;;;;5023409;28;20120;-31
2024/02/26 02:57:09;;;;;;;8.27;5.30;;;2.90;99.90;;;;;;5029929;28;20044;-31
2024/02/26 02:59:35;;;;;;;8.90;5.18;;;2.90;99.90;;;;;;5017481;28;20029;-32
2024/02/26 03:02:01;;;;;;;10.02;5.25;;;3.00;99.90;;;;;;5024716;28;20655;-32
2024/02/26 03:04:26;;;;;;;8.13;4.72;;;3.00;99.90;;;;;;5026658;28;20033;-36
2024/02/26 03:06:53;;;;;;;7.80;5.10;;;3.00;99.90;;;;;;5027860;28;20562;-32
2024/02/26 03:09:19;;;;;;;8.77;4.97;;;3.00;99.90;;;;;;5046123;28;20134;-35
2024/02/26 03:11:45;;;;;;;7.03;5.20;;;3.10;99.90;;;;;;5024953;28;20030;-32
2024/02/26 03:14:11;;;;;;;6.75;5.13;;;3.00;99.90;;;;;;5021527;28;20601;-34
2024/02/26 03:16:36;;;;;;;7.60;5.43;;;3.00;99.90;;;;;;5029549;28;20061;-36
2024/02/26 03:19:03;;;;;;;8.68;5.28;;;2.90;99.90;;;;;;5028505;28;20072;-34
2024/02/26 03:21:28;;;;;;;9.00;5.68;;;2.90;99.90;;;;;;5018207;28;20052;-32
2024/02/26 03:23:55;;;;;;;10.75;5.55;;;2.90;99.90;;;;;;5030220;28;20084;-34
2024/02/26 03:26:21;;;;;;;9.43;5.57;;;3.00;99.90;;;;;;5022874;28;20029;-34
2024/02/26 03:28:47;;;;;;;8.43;5.63;;;3.00;99.90;;;;;;5031407;28;20037;-32
2024/02/26 03:31:13;;;;;;;8.48;5.25;;;3.00;99.90;;;;;;5020935;28;20033;-32
2024/02/26 03:33:38;;;;;;;9.95;6.07;;;3.00;99.90;;;;;;5021336;28;20034;-31
2024/02/26 03:36:04;;;;;;;8.75;5.38;;;3.00;99.90;;;;;;5020112;28;20053;-32
2024/02/26 03:38:30;;;;;;;9.55;6.13;;;3.00;99.90;;;;;;5023577;28;20034;-35
2024/02/26 03:40:55;;;;;;;11.77;6.78;;;2.90;99.90;;;;;;5025665;28;20085;-33
2024/02/26 03:43:21;;;;;;;11.85;7.07;;;2.90;99.90;;;;;;5024033;28;20399;-33
2024/02/26 03:45:47;;;;;;;12.10;6.45;;;2.90;99.90;;;;;;5022172;28;20021;-32
2024/02/26 03:48:12;;;;;;;10.43;5.35;;;2.90;99.90;;;;;;5023868;28;20026;-34
2024/02/26 03:50:38;;;;;;;12.18;6.47;;;2.90;99.90;;;;;;5016540;28;20412;-32
2024/02/26 03:53:04;;;;;;;11.55;6.13;;;2.90;99.90;;;;;;5024750;28;20033;-40
2024/02/26 03:55:30;;;;;;;12.02;6.43;;;2.90;99.90;;;;;;5023507;28;20025;-43
2024/02/26 03:57:55;;;;;;;9.60;5.68;;;2.80;99.90;;;;;;5025557;28;20029;-41
2024/02/26 04:00:21;;;;;;;11.27;6.85;;;2.90;99.90;;;;;;5019428;28;20041;-35
2024/02/26 04:02:47;;;;;;;8.38;5.45;;;2.90;99.90;;;;;;5020695;28;20391;-41
2024/02/26 04:05:14;;;;;;;10.98;6.75;;;2.90;99.90;;;;;;5025498;28;20486;-39
2024/02/26 04:07:40;;;;;;;11.20;6.28;;;3.00;99.90;;;;;;5006962;28;20033;-41
2024/02/26 04:10:12;;;;;;;10.80;6.45;;;2.90;99.90;;;;;;5023362;28;20025;-40
2024/02/26 04:12:40;;;;;;;11.50;6.53;;;2.90;99.90;;;;;;5021379;28;20040;-38
2024/02/26 04:15:10;;;;;;;12.23;6.67;;;2.90;99.90;;;;;;5023205;28;20428;-37
2024/02/26 04:17:36;;;;;;;11.30;6.82;;;2.90;99.90;;;;;;5024746;28;20044;-39
2024/02/26 04:20:03;;;;;;;7.75;5.38;;;2.90;99.90;;;;;;5023245;28;20029;-39
2024/02/26 04:22:29;;;;;;;8.73;5.88;;;2.90;99.90;;;;;;5020211;28;20102;-40
2024/02/26 04:24:54;;;;;;;11.30;6.72;;;2.90;99.90;;;;;;5022471;28;20026;-39
2024/02/26 04:27:20;;;;;;;10.65;6.20;;;3.00;99.90;;;;;;5020927;28;20030;-36
2024/02/26 04:29:46;;;;;;;8.23;6.15;;;3.10;99.90;;;;;;5057023;28;20029;-39
2024/02/26 04:32:11;;;;;;;8.18;5.95;;;3.10;99.90;;;;;;5021990;28;20360;-38
2024/02/26 04:34:37;;;;;;;11.10;6.22;;;3.20;99.90;;;;;;5025060;28;20053;-39
2024/02/26 04:37:03;;;;;;;9.45;5.53;;;3.20;99.90;;;;;;5022571;28;20029;-38
2024/02/26 04:39:28;;;;;;;9.88;5.93;;;3.20;99.90;;;;;;5055332;28;20075;-39
2024/02/26 04:41:54;;;;;;;9.18;6.15;;;3.20;99.90;;;;;;5021264;28;20049;-39
2024/02/26 04:44:19;;;;;;;8.38;5.70;;;3.30;99.90;;;;;;5024935;28;20108;-36
2024/02/26 04:46:45;;;;;;;10.90;5.95;;;3.30;99.90;;;;;;5023394;28;20032;-40
2024/02/26 04:49:11;;;;;;;11.38;6.75;;;3.30;99.90;;;;;;5022734;28;20025;-39
2024/02/26 04:51:37;;;;;;;10.35;6.22;;;3.40;99.90;;;;;;5022244;28;20033;-38
2024/02/26 04:54:03;;;;;;;8.98;5.20;;;3.40;99.90;;;;;;5018561;28;20380;-37
2024/02/26 04:56:28;;;;;;;9.77;5.70;;;3.30;99.90;;;;;;5021761;28;20026;-39
2024/02/26 04:58:54;;;;;;;8.88;6.05;;;3.30;99.90;;;;;;5021393;28;20026;-40
2024/02/26 05:01:19;;;;;;;10.07;6.35;;;3.20;99.90;;;;;;5020554;28;20041;-32
2024/02/26 05:03:45;;;;;;;9.43;5.95;;;3.20;99.90;;;;;;5039414;28;20029;-32
2024/02/26 05:06:10;;;;;;;8.77;5.63;;;3.20;99.90;;;;;;5039311;28;20036;-32
2024/02/26 05:08:37;;;;;;;9.27;5.57;;;3.30;99.90;;;;;;5021217;28;20029;-33
2024/02/26 05:11:03;;;;;;;7.95;5.65;;;3.30;99.90;;;;;;5024192;28;20072;-32
2024/02/26 05:13:29;;;;;;;9.85;6.15;;;3.30;99.90;;;;;;5036116;28;20056;-31
2024/02/26 05:15:55;;;;;;;11.57;6.57;;;3.40;99.90;;;;;;5020516;28;20079;-33
2024/02/26 05:18:22;;;;;;;8.52;6.22;;;3.40;99.90;;;;;;5022926;28;20057;-36
2024/02/26 05:20:48;;;;;;;10.05;5.85;;;3.50;99.90;;;;;;5024396;28;20467;-34
2024/02/26 05:23:13;;;;;;;8.50;5.93;;;3.40;99.90;;;;;;5022365;28;20033;-39
2024/02/26 05:25:39;;;;;;;9.15;5.95;;;3.30;99.90;;;;;;5020669;28;20588;-38
2024/02/26 05:28:04;;;;;;;11.18;5.97;;;3.30;99.90;;;;;;5018038;28;20498;-38
2024/02/26 05:30:30;;;;;;;9.60;6.18;;;3.20;99.90;;;;;;5021736;28;20029;-38
2024/02/26 05:32:55;;;;;;;11.30;7.18;;;3.20;99.90;;;;;;5053919;28;20026;-40
2024/02/26 05:35:21;;;;;;;9.45;6.18;;;3.20;99.90;;;;;;5022059;28;20049;-37
2024/02/26 05:37:47;;;;;;;8.75;6.88;;;3.10;99.90;;;;;;5025291;28;20034;-37
2024/02/26 05:40:12;;;;;;;10.07;6.97;;;3.10;99.90;;;;;;5022632;28;20025;-37
2024/02/26 05:42:38;;;;;;;12.20;7.35;;;3.00;99.90;;;;;;5020474;28;20068;-39
2024/02/26 05:45:06;;;;;;;8.93;5.72;;;3.00;99.90;;;;;;5026544;28;20025;-40
2024/02/26 05:47:34;;;;;;;9.35;6.03;;;3.00;99.90;;;;;;5025802;28;20127;-39
2024/02/26 05:50:00;;;;;;;;;;;2.90;99.90;;;;;;5056337;28;20033;-39
2024/02/26 05:52:27;;;;;;;10.85;6.68;;;2.90;99.90;;;;;;5022067;28;19922;-38
2024/02/26 05:54:53;;;;;;;10.30;6.60;;;2.90;99.90;;;;;;5027000;28;20655;-39
2024/02/26 05:57:19;;;;;;;10.93;6.70;;;2.90;99.90;;;;;;5019676;28;20040;-39
2024/02/26 05:59:45;;;;;;;14.70;7.63;;;2.90;99.90;;;;;;5024694;28;20029;-40
2024/02/26 06:02:10;;;;;;;10.80;6.55;;;2.90;99.90;;;;;;5025029;28;20033;-40
2024/02/26 06:04:36;;;;;;;12.70;6.82;;;3.00;99.90;;;;;;5027098;28;20489;-39
2024/02/26 06:07:02;;;;;;;11.70;7.47;;;3.10;99.90;;;;;;5026260;28;20687;-40
2024/02/26 06:09:28;;;;;;;15.68;7.88;;;3.10;99.90;;;;;;5028149;28;20025;-38
2024/02/26 06:11:53;;;;;;;11.60;7.20;;;3.00;99.90;;;;;;5028494;28;20030;-31
2024/02/26 06:14:20;;;;;;;12.43;7.28;;;3.00;99.90;;;;;;5026752;28;20040;-31
2024/02/26 06:16:46;;;;;;;10.32;6.50;;;3.00;99.90;;;;;;5026421;28;20077;-31
2024/02/26 06:19:12;;;;;;;6.50;4.95;;;3.10;99.90;;;;;;5024825;28;20033;-33
2024/02/26 06:21:37;;;;;;;8.52;5.50;;;3.10;99.90;;;;;;5023158;28;20041;-32
2024/02/26 06:24:03;;;;;;;11.73;6.53;;;3.20;99.90;;;;;;5027199;28;20037;-32
2024/02/26 06:26:29;;;;;;;11.95;6.68;;;3.20;99.90;;;;;;5023103;28;20041;-35
2024/02/26 06:28:55;;;;;;;14.30;7.85;;;3.20;99.90;;;;;;5028852;28;20041;-31
2024/02/26 06:31:22;;;;;;;11.23;6.78;;;3.10;99.90;;;;;;5025251;28;20106;-38
2024/02/26 06:33:49;;;;;;;12.57;7.10;;;3.10;99.90;;;;;;5023860;28;20618;-40
2024/02/26 06:36:15;;;;;;;10.60;6.70;;;3.10;99.90;;;;;;5026630;28;20077;-41
2024/02/26 06:38:41;;;;;;;9.85;6.70;;;3.10;99.90;;;;;;5021600;28;20503;-42
2024/02/26 06:41:07;;;;;;;11.40;7.43;;;3.20;99.90;;;;;;5018279;28;20100;-42
2024/02/26 06:43:32;;;;;;;12.00;7.07;;;3.20;99.90;;;;;;5020686;28;20087;-42
2024/02/26 06:45:58;;;;;;;12.20;6.18;;;3.10;99.90;;;;;;5020312;28;20025;-42
2024/02/26 06:48:24;;;;;;;11.63;6.68;;;3.20;99.90;;;;;;5023232;28;20501;-44
2024/02/26 06:50:50;;;;;;;14.95;7.97;;;3.30;99.90;;;;;;5021114;28;20645;-39
2024/02/26 06:53:16;;;;;;;17.70;9.82;;;3.30;99.90;;;;;;5024890;28;20121;-35
2024/02/26 06:55:42;;;;;;;13.32;8.02;;;3.20;99.90;;;;;;5020379;28;20080;-39
2024/02/26 06:58:08;;;;;;;14.65;7.82;;;3.20;99.90;;;;;;5023058;28;20527;-38
2024/02/26 07:00:34;;;;;;;11.95;7.63;;;3.30;99.90;;;;;;5021963;28;20422;-37
2024/02/26 07:03:00;;;;;;;10.20;6.85;;;3.40;99.90;;;;;;5040107;28;20033;-38
2024/02/26 07:05:27;;;;;;;13.25;7.60;;;3.40;99.90;;;;;;5043003;28;20076;-36
2024/02/26 07:07:52;;;;;;;13.27;7.32;;;3.40;99.90;;;;;;5042947;28;20041;-38
2024/02/26 07:10:18;;;;;;;11.68;6.57;;;3.40;99.90;;;;;;5040728;28;20053;-37
2024/02/26 07:12:44;;;;;;;14.38;6.63;;;3.50;99.90;;;;;;5040019;28;20029;-40
2024/02/26 07:15:10;;;;;;;8.80;5.90;;;3.60;99.90;;;;;;5044730;28;20078;-40
2024/02/26 07:17:36;;;;;;;9.73;6.43;;;3.70;99.90;;;;;;5039678;28;20039;-39
2024/02/26 07:20:05;;;;;;;13.77;6.93;;;3.70;99.90;;;;;;5042225;28;20442;-37
2024/02/26 07:22:31;;;;;;;11.70;5.80;;;3.80;99.90;;;;;;5041560;28;20479;-39
2024/02/26 07:24:56;;;;;;;9.35;6.10;;;3.80;99.90;;;;;;5039915;28;20211;-38
2024/02/26 07:27:22;;;;;;;10.50;6.70;;;3.90;99.90;;;;;;5041736;28;20043;-37
2024/02/26 07:29:48;;;;;;;12.45;6.85;;;4.00;99.90;;;;;;5040310;28;20032;-35
2024/02/26 07:32:14;;;;;;;10.32;6.55;;;4.00;99.90;;;;;;5031196;28;20139;-37
2024/02/26 07:34:41;;;;;;;10.35;7.07;;;4.00;99.90;;;;;;5023255;28;20037;-38
2024/02/26 07:37:07;;;;;;;11.07;6.30;;;4.10;99.90;;;;;;5028626;28;20041;-39
2024/02/26 07:39:33;;;;;;;10.60;7.00;;;4.10;99.90;;;;;;5024673;28;20640;-36
2024/02/26 07:41:59;;;;;;;12.60;7.85;;;4.10;99.90;;;;;;5051666;28;20022;-32
2024/02/26 07:44:24;;;;;;;11.38;7.00;;;4.20;99.90;;;;;;5027083;28;20098;-31
2024/02/26 07:46:50;;;;;;;12.50;7.57;;;4.20;99.90;;;;;;5026437;28;20057;-31
2024/02/26 07:49:16;;;;;;;12.00;7.55;;;4.30;99.90;;;;;;5031411;28;20116;-33
2024/02/26 07:51:41;;;;;;;9.48;6.97;;;4.30;99.90;;;;;;5023466;28;20030;-35
2024/02/26 07:54:07;;;;;;;12.70;7.18;;;4.30;99.90;;;;;;5028006;28;20044;-32
2024/02/26 07:56:33;;;;;;;14.02;7.65;;;4.40;99.90;;;;;;5021433;28;20071;-36
2024/02/26 07:58:58;;;;;;;13.02;8.90;;;4.40;99.90;;;;;;5025562;28;20025;-33
2024/02/26 08:01:26;;;;;;;12.25;7.50;;;4.50;99.90;;;;;;5030559;28;20474;-34
2024/02/26 08:03:55;;;;;;;13.40;7.95;;;4.50;99.90;;;;;;5040947;28;20047;-33
2024/02/26 08:06:21;;;;;;;10.68;7.05;;;4.60;99.90;;;;;;5041191;28;20056;-36
2024/02/26 08:08:46;;;;;;;11.60;7.30;;;4.60;99.90;;;;;;5043753;28;20312;-32
2024/02/26 08:11:15;;;;;;;14.32;7.75;;;4.70;99.90;;;;;;5039024;28;20087;-35
2024/02/26 08:13:40;;;;;;;10.95;6.70;;;4.80;99.90;;;;;;5042300;28;20533;-33
2024/02/26 08:16:06;;;;;;;7.53;5.32;;;4.90;99.90;;;;;;5040052;28;20029;-33
2024/02/26 08:18:32;;;;;;;11.35;5.65;;;5.00;99.90;;;;;;5042257;28;20553;-32
2024/02/26 08:20:57;;;;;;;8.93;5.72;;;5.10;99.90;;;;;;5041378;28;20583;-33
2024/02/26 08:23:23;;;;;;;12.55;6.55;;;5.30;99.90;;;;;;5039031;28;20031;-33
2024/02/26 08:25:49;;;;;;;10.82;6.28;;;5.30;99.90;;;;;;5036662;28;20076;-33
2024/02/26 08:28:17;;;;;;;9.60;5.75;;;5.30;99.90;;;;;;5042497;28;20032;-34
2024/02/26 08:30:43;;;;;;;14.27;8.07;;;5.40;99.90;;;;;;5035979;28;20453;-33
2024/02/26 08:33:09;;;;;;;11.52;7.70;;;5.40;99.90;;;;;;5019825;28;20044;-37
2024/02/26 08:35:35;;;;;;;11.90;7.18;;;5.40;99.90;;;;;;5019553;28;20057;-38
2024/02/26 08:38:01;;;;;;;10.00;6.55;;;5.40;99.90;;;;;;5019671;28;20740;-40
2024/02/26 08:40:27;;;;;;;14.95;6.63;;;5.50;99.90;;;;;;5022262;28;20033;-39
2024/02/26 08:42:52;;;;;;;11.70;6.40;;;5.50;99.90;;;;;;5019333;28;20044;-39
2024/02/26 08:45:18;;;;;;;11.23;6.50;;;5.50;99.90;;;;;;5020716;28;20100;-38
2024/02/26 08:47:45;;;;;;;10.07;6.03;;;5.60;99.90;;;;;;5018462;28;20032;-39
2024/02/26 08:50:12;;;;;;;11.02;6.35;;;5.60;99.90;;;;;;5018374;28;20238;-37
2024/02/26 08:52:38;;;;;;;10.13;7.03;;;5.60;99.90;;;;;;5018756;28;20033;-39
2024/02/26 08:55:05;;;;;;;13.35;7.30;;;5.60;99.90;;;;;;5020625;28;20018;-39
2024/02/26 08:57:33;;;;;;;10.70;6.68;;;5.60;99.90;;;;;;5018715;28;20041;-40
2024/02/26 09:00:00;;;;;;;9.75;7.25;;;5.60;99.90;;;;;;5019741;28;20022;-39
2024/02/26 09:02:26;;;;;;;10.85;6.30;;;5.70;99.90;;;;;;5019721;28;20177;-37
2024/02/26 09:04:54;;;;;;;10.23;5.72;;;5.70;99.90;;;;;;5020304;28;20112;-41
2024/02/26 09:07:21;;;;;;;10.75;6.13;;;5.70;99.90;;;;;;5020118;28;20030;-35
2024/02/26 09:09:46;;;;;;;12.30;6.88;;;5.70;99.90;;;;;;5024591;28;20048;-37
2024/02/26 09:12:12;;;;;;;8.98;5.80;;;5.80;99.90;;;;;;5024666;28;20471;-43
2024/02/26 09:14:38;;;;;;;11.57;5.95;;;5.90;99.90;;;;;;5025801;28;20680;-39
2024/02/26 09:17:03;;;;;;;11.40;6.43;;;5.90;99.90;;;;;;5023059;28;20038;-39
2024/02/26 09:19:29;;;;;;;10.60;6.35;;;5.90;99.90;;;;;;5021595;28;20022;-41
2024/02/26 09:21:57;;;;;;;12.02;6.55;;;6.00;99.90;;;;;;5025244;28;20532;-39
2024/02/26 09:24:24;;;;;;;;;;;6.00;99.90;;;;;;5022291;28;20025;-41
2024/02/26 09:26:50;;;;;;;9.60;5.97;;;6.00;99.90;;;;;;5022044;28;19913;-39
2024/02/26 09:29:16;;;;;;;8.25;5.07;;;6.10;99.90;;;;;;5023848;28;20044;-39
2024/02/26 09:31:41;;;;;;;9.60;6.13;;;6.10;99.90;;;;;;5027158;28;20037;-36
2024/02/26 09:34:07;;;;;;;10.43;6.68;;;6.10;99.90;;;;;;5026717;28;20060;-40
2024/02/26 09:36:34;;;;;;;8.82;5.32;;;6.20;99.90;;;;;;5025302;28;20172;-41
2024/02/26 09:38:59;;;;;;;11.50;6.25;;;6.30;99.90;;;;;;5025291;28;20112;-41
2024/02/26 09:41:27;;;;;;;7.97;5.63;;;6.40;99.90;;;;;;5021993;28;20878;-35
2024/02/26 09:43:56;;;;;;;9.07;6.20;;;6.50;99.90;;;;;;5024403;28;20048;-33
2024/02/26 09:46:25;;;;;;;9.90;5.78;;;6.50;99.90;;;;;;5020591;28;20117;-34
2024/02/26 09:48:51;;;;;;;7.97;5.75;;;6.60;99.90;;;;;;5021512;28;20600;-36
2024/02/26 09:51:18;;;;;;;11.18;5.75;;;6.60;99.90;;;;;;5027369;28;20029;-37
2024/02/26 09:53:45;;;;;;;13.00;5.10;;;6.70;99.90;;;;;;5015636;28;20051;-36
2024/02/26 09:56:13;;;;;;;8.23;5.18;;;6.70;99.90;;;;;;5020944;28;20029;-35
2024/02/26 09:58:40;;;;;;;11.20;7.20;;;6.80;99.90;;;;;;5023757;28;20098;-40
2024/02/26 10:01:13;;;;;;;8.43;5.90;;;6.90;99.90;;;;;;5021797;28;20615;-36
2024/02/26 10:03:41;;;;;;;8.70;5.90;;;7.00;99.90;;;;;;5038874;28;20280;-35
2024/02/26 10:06:10;;;;;;;10.50;5.40;;;7.00;99.90;;;;;;5043502;28;20036;-32
2024/02/26 10:08:39;;;;;;;8.02;5.55;;;7.10;99.90;;;;;;5040314;28;20707;-33
2024/02/26 10:11:07;;;;;;;12.55;6.00;;;7.10;99.90;;;;;;5039947;28;20017;-36
2024/02/26 10:13:37;;;;;;;10.43;5.53;;;7.30;99.90;;;;;;5042301;28;20447;-32
2024/02/26 10:16:04;;;;;;;10.25;5.85;;;7.30;99.90;;;;;;5046346;28;20040;-33
2024/02/26 10:18:53;;;;;;;8.40;5.28;;;7.30;99.90;;;;;;5041227;28;20079;-31
2024/02/26 10:21:20;;;;;;;8.98;5.40;;;7.40;99.90;;;;;;5036297;28;20037;-35
2024/02/26 10:23:47;;;;;;;9.10;4.97;;;7.50;99.90;;;;;;5041937;28;20475;-33
2024/02/26 10:26:13;;;;;;;8.60;5.72;;;7.60;99.90;;;;;;5045959;28;20120;-35
2024/02/26 10:28:41;;;;;;;11.00;6.10;;;7.70;99.90;;;;;;5030087;28;20675;-31
2024/02/26 10:31:06;;;;;;;8.02;5.57;;;7.90;99.90;;;;;;5042077;28;20528;-38
2024/02/26 10:33:36;;;;;;;7.88;5.18;;;7.90;99.90;;;;;;5022442;28;20029;-31
2024/02/26 10:36:05;;;;;;;10.05;5.38;;;8.00;99.90;;;;;;5022078;28;20572;-31
2024/02/26 10:38:30;;;;;;;8.07;5.57;;;8.00;99.90;;;;;;5022695;28;20025;-33
2024/02/26 10:40:56;;;;;;;8.93;5.35;;;7.90;99.90;;;;;;5022177;28;20038;-31
2024/02/26 10:43:22;;;;;;;11.80;5.50;;;7.90;99.90;;;;;;5019316;28;20117;-32
2024/02/26 10:45:47;;;;;;;8.07;4.60;;;7.90;99.90;;;;;;5023393;28;20033;-31
2024/02/26 10:48:14;;;;;;;9.02;4.72;;;7.90;99.90;;;;;;5022375;28;20044;-34
2024/02/26 10:50:41;;;;;;;8.52;5.03;;;8.00;99.90;;;;;;5018712;28;20029;-33
2024/02/26 10:53:19;;;;;;;6.57;5.38;;;8.10;99.90;;;;;;5021342;28;20072;-34
2024/02/26 10:55:49;;;;;;;8.90;5.05;;;8.10;99.90;;;;;;5019262;28;20068;-34
2024/02/26 10:58:16;;;;;;;9.48;5.40;;;8.10;99.90;;;;;;5024551;28;20029;-34
2024/02/26 11:00:43;;;;;;;8.68;5.20;;;8.10;99.90;;;;;;5025321;28;20032;-32
2024/02/26 11:03:10;;;;;;;7.68;5.15;;;8.10;99.90;;;;;;5020089;28;20037;-39
2024/02/26 11:05:37;;;;;;;9.88;5.53;;;8.20;99.90;;;;;;5021093;28;20471;-37
2024/02/26 11:08:04;;;;;;;9.35;5.38;;;8.20;99.90;;;;;;5023678;28;20531;-38
2024/02/26 11:10:31;;;;;;;10.03;5.80;;;8.20;99.90;;;;;;5021442;28;20033;-38
2024/02/26 11:13:01;;;;;;;8.55;4.68;;;8.40;99.90;;;;;;5024816;28;20443;-39
2024/02/26 11:15:28;;;;;;;9.45;5.72;;;8.50;99.90;;;;;;5017500;28;20091;-40
2024/02/26 11:17:55;;;;;;;7.93;5.43;;;8.70;99.90;;;;;;5020668;28;20029;-37
2024/02/26 11:20:22;;;;;;;9.13;5.40;;;8.70;99.90;;;;;;5018359;28;20646;-38
2024/02/26 11:22:47;;;;;;;8.48;5.85;;;8.90;99.90;;;;;;5022616;28;20037;-42
2024/02/26 11:25:13;;;;;;;8.85;5.43;;;9.00;99.90;;;;;;5020863;28;20642;-38
2024/02/26 11:27:44;;;;;;;9.05;5.03;;;9.00;99.90;;;;;;5020412;28;20039;-41
2024/02/26 11:30:12;;;;;;;9.85;5.97;;;9.00;99.90;;;;;;5023865;28;20030;-40
2024/02/26 11:32:38;;;;;;;9.95;5.45;;;9.20;99.90;;;;;;5019780;28;20052;-40
2024/02/26 11:35:05;;;;;;;9.70;6.10;;;9.10;99.90;;;;;;5017490;28;20430;-40
2024/02/26 11:37:32;;;;;;;8.73;5.68;;;9.30;99.90;;;;;;5018261;28;20536;-39
2024/02/26 11:40:00;;;;;;;9.63;6.15;;;9.20;99.90;;;;;;5017212;28;20121;-43
2024/02/26 11:42:25;;;;;;;8.68;5.75;;;9.30;99.90;;;;;;5015861;28;20653;-39
2024/02/26 11:44:51;;;;;;;10.75;5.35;;;9.30;99.90;;;;;;5025259;28;20083;-41
2024/02/26 11:47:23;;;;;;;9.02;5.57;;;9.40;99.90;;;;;;5016985;28;20033;-37
2024/02/26 11:49:49;;;;;;;8.10;5.28;;;9.40;99.90;;;;;;5020027;28;20065;-41
2024/02/26 11:52:15;;;;;;;8.85;4.93;;;9.60;99.90;;;;;;5019733;28;21461;-36
2024/02/26 11:54:45;;;;;;;6.93;5.43;;;9.60;99.90;;;;;;5017672;28;20030;-41
2024/02/26 11:57:30;;;;;;;9.68;5.22;;;9.70;99.90;;;;;;5016079;28;20030;-37
2024/02/26 11:59:57;;;;;;;7.72;5.15;;;9.80;99.90;;;;;;5013671;28;20758;-42
2024/02/26 12:03:00;;;;;;;7.33;4.67;;;9.90;99.90;;;;;;5013879;28;20040;-39
2024/02/26 12:05:30;;;;;;;7.50;5.00;;;9.80;99.90;;;;;;5017051;28;20108;-40
2024/02/26 12:08:03;;;;;;;11.07;5.18;;;9.90;99.90;;;;;;5018770;28;20057;-40
2024/02/26 12:10:44;;;;;;;7.25;5.07;;;9.80;99.90;;;;;;5018196;28;20184;-39
2024/02/26 12:13:16;;;;;;;10.05;5.88;;;9.50;99.90;;;;;;5018014;28;20033;-32
2024/02/26 12:15:59;;;;;;;13.18;5.03;;;9.30;99.90;;;;;;5016288;28;20022;-32
2024/02/26 12:18:25;;;;;;;7.50;5.13;;;9.10;99.90;;;;;;5013870;28;20035;-33
2024/02/26 12:21:03;;;;;;;8.35;5.47;;;9.10;99.90;;;;;;5023129;28;20029;-32
2024/02/26 12:23:30;;;;;;;8.20;5.80;;;9.30;99.90;;;;;;5019782;28;20608;-33
2024/02/26 12:26:01;;;;;;;9.20;5.55;;;9.40;99.90;;;;;;5019546;28;20505;-33
2024/02/26 12:28:29;;;;;;;8.85;5.47;;;9.60;99.90;;;;;;5018794;28;20033;-31
2024/02/26 12:30:54;;;;;;;7.95;4.90;;;9.70;99.90;;;;;;5018087;28;20049;-32
2024/02/26 12:33:20;;;;;;;10.38;5.30;;;9.80;99.90;;;;;;5018145;28;20032;-37
2024/02/26 12:35:48;;;;;;;7.35;5.10;;;9.80;99.90;;;;;;5019376;28;20048;-40
2024/02/26 12:38:15;;;;;;;7.65;5.22;;;9.80;99.90;;;;;;5012056;28;20053;-41
2024/02/26 12:40:41;;;;;;;6.32;4.95;;;9.80;99.90;;;;;;5017486;28;20029;-40
2024/02/26 12:43:12;;;;;;;9.18;4.95;;;9.80;99.90;;;;;;5020256;28;20780;-38
2024/02/26 12:45:40;;;;;;;13.23;5.07;;;9.80;99.90;;;;;;5010130;28;20217;-38
2024/02/26 12:48:06;;;;;;;8.70;5.07;;;9.80;99.90;;;;;;5020728;28;20036;-36
2024/02/26 12:50:32;;;;;;;10.18;5.55;;;9.80;99.90;;;;;;5019302;28;20040;-38